Time;durP1;ratioP1;P1;durP2;ratioP2;P2;SDS_P1;SDS_P2;PMS_P1;PMS_P2;Temp;Humidity;BMP_temperature;BMP_pressure;BME280_temperature;BME280_humidity;BME280_pressure;Samples;Min_cycle;Max_cycle;Signal;HPM_P1;HPM_P2
2022/09/24 00:01:52;;;;;;;10.23;6.57;;;13.50;93.80;;;;;;4977993;28;20042;-74
2022/09/24 00:04:18;;;;;;;8.43;6.13;;;13.50;93.90;;;;;;4978735;28;20035;-73
2022/09/24 00:06:47;;;;;;;9.18;6.43;;;13.50;93.90;;;;;;4981018;28;20033;-73
2022/09/24 00:09:14;;;;;;;8.77;6.28;;;13.50;93.90;;;;;;4979508;28;20551;-73
2022/09/24 00:11:42;;;;;;;9.13;6.20;;;13.50;94.00;;;;;;4977658;28;20508;-74
2022/09/24 00:14:08;;;;;;;12.60;6.70;;;13.40;94.00;;;;;;4978258;28;20038;-74
2022/09/24 00:16:34;;;;;;;7.93;6.30;;;13.50;94.00;;;;;;4978499;28;20081;-74
2022/09/24 00:19:01;;;;;;;8.55;6.32;;;13.40;94.00;;;;;;4978743;28;20062;-74
2022/09/24 00:21:29;;;;;;;8.70;6.63;;;13.40;94.10;;;;;;4982126;28;20046;-75
2022/09/24 00:24:01;;;;;;;8.88;6.20;;;13.40;94.20;;;;;;4981925;28;20037;-75
2022/09/24 00:29:14;;;;;;;8.63;6.43;;;13.30;94.20;;;;;;4982357;28;20108;-74
2022/09/24 00:31:40;;;;;;;8.07;6.15;;;13.30;94.20;;;;;;4981597;28;20670;-74
2022/09/24 00:34:09;;;;;;;8.65;6.15;;;13.30;94.30;;;;;;4986781;28;20085;-75
2022/09/24 00:36:35;;;;;;;7.85;6.05;;;13.30;94.40;;;;;;4982334;28;20026;-74
2022/09/24 00:39:01;;;;;;;8.75;6.57;;;13.30;94.40;;;;;;4982100;28;20081;-75
2022/09/24 00:41:32;;;;;;;8.50;6.85;;;13.20;94.40;;;;;;4980968;28;20560;-74
2022/09/24 00:43:58;;;;;;;8.77;6.35;;;13.20;94.40;;;;;;4981383;28;20030;-74
2022/09/24 00:46:26;;;;;;;9.20;6.28;;;13.20;94.50;;;;;;4980739;28;20027;-74
2022/09/24 00:49:14;;;;;;;8.30;6.13;;;13.20;94.50;;;;;;4982552;28;20101;-75
2022/09/24 00:51:43;;;;;;;7.60;6.20;;;13.20;94.60;;;;;;4980895;28;20031;-75
2022/09/24 00:54:22;;;;;;;9.43;6.43;;;13.10;94.50;;;;;;4963712;28;20394;-74
2022/09/24 00:56:50;;;;;;;10.02;6.25;;;13.10;94.60;;;;;;4981211;28;20114;-74
2022/09/24 00:59:18;;;;;;;9.75;6.82;;;13.10;94.60;;;;;;4981212;28;20030;-74
2022/09/24 01:01:45;;;;;;;7.50;6.10;;;13.10;94.70;;;;;;4964452;28;20387;-74
2022/09/24 01:04:12;;;;;;;7.68;5.88;;;13.10;94.70;;;;;;4981709;28;20029;-75
2022/09/24 01:06:38;;;;;;;8.10;6.30;;;13.10;94.80;;;;;;4979926;28;20037;-75
2022/09/24 01:09:04;;;;;;;11.88;6.75;;;13.00;94.80;;;;;;4964246;28;20022;-74
2022/09/24 01:11:48;;;;;;;9.35;6.40;;;13.10;94.90;;;;;;4980607;28;20034;-73
2022/09/24 01:14:13;;;;;;;7.70;6.30;;;13.00;95.00;;;;;;4981831;28;20090;-75
2022/09/24 01:17:14;;;;;;;7.05;5.97;;;13.00;94.90;;;;;;4980321;28;20058;-73
2022/09/24 01:20:07;;;;;;;8.63;6.07;;;13.00;95.10;;;;;;4981331;28;20042;-73
2022/09/24 01:23:10;;;;;;;9.40;6.93;;;13.00;95.00;;;;;;4980273;28;20041;-74
2022/09/24 01:26:07;;;;;;;7.95;6.45;;;13.00;95.10;;;;;;4980799;28;20687;-74
2022/09/24 01:28:47;;;;;;;7.90;6.13;;;12.90;95.10;;;;;;4988081;28;20049;-74
2022/09/24 01:31:30;;;;;;;8.15;6.68;;;12.90;95.10;;;;;;4979825;28;20031;-74
2022/09/24 01:34:00;;;;;;;9.88;6.45;;;12.90;95.20;;;;;;4981177;28;20161;-74
2022/09/24 01:36:28;;;;;;;7.85;6.55;;;12.90;95.30;;;;;;4980073;28;20034;-74
2022/09/24 01:38:56;;;;;;;8.70;6.72;;;12.90;95.40;;;;;;4980124;28;20030;-74
2022/09/24 01:41:22;;;;;;;8.25;6.20;;;12.90;95.40;;;;;;4980494;28;20046;-74
2022/09/24 01:43:48;;;;;;;9.00;6.10;;;12.90;95.40;;;;;;4982132;28;20029;-73
2022/09/24 01:46:18;;;;;;;8.00;6.50;;;12.90;95.50;;;;;;4980812;28;20038;-73
2022/09/24 01:48:44;;;;;;;7.65;6.07;;;13.00;95.50;;;;;;4982033;28;20029;-74
2022/09/24 01:51:36;;;;;;;10.07;6.97;;;13.00;95.50;;;;;;4981938;28;20022;-73
2022/09/24 01:54:08;;;;;;;9.18;6.30;;;13.00;95.50;;;;;;4981690;28;20053;-74
2022/09/24 01:56:44;;;;;;;9.73;6.60;;;13.00;95.50;;;;;;4980898;28;20033;-75
2022/09/24 01:59:30;;;;;;;9.48;6.25;;;13.00;95.60;;;;;;4981315;28;20049;-74
2022/09/24 02:02:22;;;;;;;7.40;6.35;;;13.00;95.60;;;;;;4980018;28;20109;-74
2022/09/24 02:04:56;;;;;;;8.05;6.45;;;13.00;95.60;;;;;;4980382;28;20152;-74
2022/09/24 02:08:00;;;;;;;9.02;7.18;;;13.00;95.60;;;;;;4982487;28;20038;-74
2022/09/24 02:10:31;;;;;;;7.55;6.30;;;13.00;95.60;;;;;;4959830;28;20038;-74
2022/09/24 02:13:04;;;;;;;8.93;5.82;;;13.00;95.70;;;;;;4980528;28;20039;-74
2022/09/24 02:15:37;;;;;;;8.18;6.38;;;13.00;95.70;;;;;;4979636;28;20053;-74
2022/09/24 02:18:07;;;;;;;7.28;5.70;;;13.00;95.80;;;;;;4981199;28;20126;-74
2022/09/24 02:20:35;;;;;;;7.88;6.15;;;13.00;95.80;;;;;;4980480;28;20030;-74
2022/09/24 02:23:02;;;;;;;7.40;6.30;;;13.00;95.80;;;;;;4979157;28;20108;-74
2022/09/24 02:25:38;;;;;;;7.45;6.20;;;13.00;95.90;;;;;;4980597;28;20362;-74
2022/09/24 02:28:03;;;;;;;11.18;6.30;;;13.00;95.90;;;;;;4980675;28;20050;-74
2022/09/24 02:30:38;;;;;;;7.32;6.20;;;13.00;95.90;;;;;;4979959;28;20034;-74
2022/09/24 02:34:19;;;;;;;7.18;6.18;;;13.00;95.90;;;;;;4980537;28;20030;-75
2022/09/24 02:35:52;;;;;;;9.48;6.28;;;13.10;95.90;;;;;;4984500;28;20062;-74
2022/09/24 02:38:18;;;;;;;8.48;6.47;;;13.00;95.90;;;;;;4979405;28;20030;-74
2022/09/24 02:40:44;;;;;;;7.15;6.03;;;13.00;95.90;;;;;;4978948;28;20038;-75
2022/09/24 02:43:10;;;;;;;8.38;6.53;;;13.00;95.90;;;;;;4979708;28;20039;-75
2022/09/24 02:45:35;;;;;;;11.63;6.53;;;13.00;95.90;;;;;;4979383;28;20026;-75
2022/09/24 02:48:02;;;;;;;9.07;6.85;;;13.00;95.90;;;;;;4980030;28;20041;-75
2022/09/24 02:50:28;;;;;;;8.98;6.68;;;13.00;96.00;;;;;;4978525;28;20034;-74
2022/09/24 02:52:53;;;;;;;7.82;5.88;;;13.00;96.00;;;;;;4979360;28;20100;-75
2022/09/24 02:55:20;;;;;;;8.75;6.43;;;13.00;96.00;;;;;;4978817;28;20065;-75
2022/09/24 02:57:46;;;;;;;7.43;6.05;;;13.00;96.10;;;;;;4980125;28;20044;-74
2022/09/24 03:00:13;;;;;;;7.65;6.85;;;13.00;96.10;;;;;;4979385;28;20030;-75
2022/09/24 03:02:39;;;;;;;8.15;6.38;;;13.00;96.10;;;;;;4980407;28;20113;-74
2022/09/24 03:05:05;;;;;;;7.25;6.03;;;13.00;96.20;;;;;;4978992;28;20022;-75
2022/09/24 03:07:32;;;;;;;7.70;5.80;;;13.00;96.10;;;;;;4963237;28;20048;-73
2022/09/24 03:09:58;;;;;;;7.97;6.05;;;13.00;96.20;;;;;;4978623;28;20031;-74
2022/09/24 03:12:24;;;;;;;7.45;6.15;;;13.00;96.20;;;;;;4978993;28;20018;-75
2022/09/24 03:14:49;;;;;;;7.38;6.18;;;13.00;96.20;;;;;;4979562;28;20026;-74
2022/09/24 03:17:15;;;;;;;8.82;5.90;;;13.00;96.30;;;;;;4980097;28;20030;-74
2022/09/24 03:19:41;;;;;;;8.68;6.75;;;13.00;96.30;;;;;;4963568;28;20034;-74
2022/09/24 03:22:07;;;;;;;7.15;5.50;;;13.00;96.30;;;;;;4977415;28;20077;-73
2022/09/24 03:24:32;;;;;;;6.60;5.80;;;13.00;96.30;;;;;;4979694;28;20026;-74
2022/09/24 03:26:58;;;;;;;7.68;6.13;;;13.00;96.20;;;;;;4979070;28;20104;-74
2022/09/24 03:30:58;;;;;;;7.57;5.93;;;13.00;96.30;;;;;;4985978;28;20724;-74
2022/09/24 03:32:09;;;;;;;8.20;6.03;;;13.00;96.30;;;;;;4979541;28;20201;-74
2022/09/24 03:34:35;;;;;;;7.38;6.00;;;13.00;96.40;;;;;;4982011;28;20409;-74
2022/09/24 03:37:01;;;;;;;8.65;6.50;;;13.00;96.40;;;;;;4982923;28;20097;-75
2022/09/24 03:39:26;;;;;;;9.23;6.90;;;13.00;96.40;;;;;;4981692;28;20031;-75
2022/09/24 03:41:52;;;;;;;6.82;5.85;;;13.00;96.40;;;;;;4981789;28;20038;-75
2022/09/24 03:44:17;;;;;;;9.30;6.35;;;13.00;96.40;;;;;;4980592;28;20031;-78
2022/09/24 03:46:43;;;;;;;8.70;6.15;;;13.00;96.50;;;;;;4981896;28;20042;-75
2022/09/24 03:49:09;;;;;;;8.45;6.32;;;13.00;96.50;;;;;;4981809;28;20121;-75
2022/09/24 03:51:36;;;;;;;7.72;6.20;;;13.00;96.50;;;;;;4983096;28;20022;-75
2022/09/24 03:54:02;;;;;;;9.73;7.13;;;13.00;96.40;;;;;;4983811;28;20036;-74
2022/09/24 03:56:27;;;;;;;8.48;6.22;;;13.00;96.50;;;;;;4985197;28;20683;-74
2022/09/24 03:58:53;;;;;;;9.10;6.47;;;13.00;96.50;;;;;;4997208;28;20033;-75
2022/09/24 04:01:20;;;;;;;8.20;6.45;;;12.90;96.50;;;;;;4990012;28;20058;-75
2022/09/24 04:03:47;;;;;;;8.27;6.53;;;12.90;96.50;;;;;;4987489;28;20030;-75
2022/09/24 04:06:13;;;;;;;8.52;6.72;;;12.90;96.50;;;;;;4985897;28;20641;-75
2022/09/24 04:08:38;;;;;;;9.07;6.40;;;12.90;96.60;;;;;;4989957;28;20129;-75
2022/09/24 04:11:04;;;;;;;7.72;6.35;;;12.90;96.60;;;;;;4990242;28;20473;-75
2022/09/24 04:13:30;;;;;;;9.45;7.00;;;12.90;96.60;;;;;;4988251;28;20043;-74
2022/09/24 04:16:00;;;;;;;7.53;6.28;;;12.90;96.60;;;;;;4989170;28;20074;-75
2022/09/24 04:18:26;;;;;;;8.00;6.35;;;12.90;96.70;;;;;;4989314;28;20034;-74
2022/09/24 04:21:00;;;;;;;8.32;6.03;;;12.90;96.70;;;;;;4989491;28;20066;-74
2022/09/24 04:23:26;;;;;;;10.30;6.10;;;12.90;96.80;;;;;;4986064;28;20158;-74
2022/09/24 04:25:53;;;;;;;6.82;5.75;;;12.90;96.70;;;;;;4983427;28;20809;-74
2022/09/24 04:28:19;;;;;;;7.72;6.38;;;12.90;96.70;;;;;;4983414;28;20138;-74
2022/09/24 04:30:44;;;;;;;7.50;6.68;;;12.90;96.80;;;;;;4965774;28;20030;-74
2022/09/24 04:33:10;;;;;;;7.28;5.78;;;12.90;96.80;;;;;;4989537;28;20030;-74
2022/09/24 04:35:36;;;;;;;7.45;6.25;;;12.90;96.80;;;;;;4984216;28;20294;-75
2022/09/24 04:38:03;;;;;;;7.88;6.60;;;12.90;96.80;;;;;;4982448;28;20194;-73
2022/09/24 04:40:30;;;;;;;8.13;6.00;;;12.90;96.90;;;;;;4983275;28;20038;-74
2022/09/24 04:42:55;;;;;;;8.88;6.10;;;12.90;96.90;;;;;;4982978;28;20046;-73
2022/09/24 04:45:23;;;;;;;7.28;5.75;;;12.90;96.90;;;;;;4982969;28;20027;-74
2022/09/24 04:47:52;;;;;;;6.90;5.80;;;12.90;96.90;;;;;;4983482;28;20062;-75
2022/09/24 04:50:19;;;;;;;8.82;6.30;;;12.90;96.90;;;;;;4983081;28;20041;-74
2022/09/24 04:52:46;;;;;;;8.05;6.38;;;12.90;97.00;;;;;;4982520;28;20069;-74
2022/09/24 04:55:13;;;;;;;8.02;6.47;;;12.90;96.90;;;;;;4983107;28;21807;-73
2022/09/24 04:57:46;;;;;;;7.30;5.93;;;12.90;96.90;;;;;;4982997;28;20054;-73
2022/09/24 05:00:16;;;;;;;8.73;6.28;;;12.90;97.00;;;;;;4982373;28;20042;-74
2022/09/24 05:02:42;;;;;;;7.07;6.20;;;12.90;97.00;;;;;;4982067;28;20069;-74
2022/09/24 05:05:10;;;;;;;7.95;6.43;;;12.90;97.00;;;;;;4980554;28;20639;-74
2022/09/24 05:07:36;;;;;;;8.25;6.85;;;12.90;97.00;;;;;;4983427;28;20030;-73
2022/09/24 05:10:01;;;;;;;6.88;5.85;;;12.90;96.90;;;;;;4982052;28;20677;-73
2022/09/24 05:12:29;;;;;;;9.48;6.82;;;12.90;97.00;;;;;;4983388;28;20030;-73
2022/09/24 05:14:54;;;;;;;7.60;6.10;;;12.90;97.00;;;;;;4980929;28;20022;-74
2022/09/24 05:17:20;;;;;;;9.07;6.38;;;12.90;97.00;;;;;;4981572;28;20619;-73
2022/09/24 05:19:46;;;;;;;7.35;5.88;;;12.90;97.00;;;;;;4980175;28;21426;-73
2022/09/24 05:22:11;;;;;;;6.88;6.03;;;12.90;97.00;;;;;;4963665;28;20129;-74
2022/09/24 05:24:37;;;;;;;6.85;5.70;;;12.90;97.00;;;;;;4980811;28;20033;-73
2022/09/24 05:27:09;;;;;;;8.13;6.53;;;12.90;97.00;;;;;;4982721;28;20050;-73
2022/09/24 05:29:43;;;;;;;9.25;6.75;;;12.90;97.00;;;;;;4983394;28;20124;-75
2022/09/24 05:32:10;;;;;;;;;;;12.90;97.00;;;;;;4984621;28;20030;-73
2022/09/24 05:34:36;;;;;;;9.55;6.50;;;12.90;96.80;;;;;;4980907;28;19913;-75
2022/09/24 05:37:02;;;;;;;8.77;6.93;;;12.90;96.90;;;;;;4981340;28;20030;-75
2022/09/24 05:39:29;;;;;;;11.23;7.35;;;12.90;97.00;;;;;;4981388;28;20049;-74
2022/09/24 05:41:55;;;;;;;7.63;6.28;;;12.90;97.00;;;;;;4980527;28;20041;-75
2022/09/24 05:44:21;;;;;;;8.35;6.55;;;12.90;97.10;;;;;;4981907;28;20033;-74
2022/09/24 05:46:48;;;;;;;8.73;6.80;;;12.90;97.10;;;;;;4980657;28;20060;-74
2022/09/24 05:49:13;;;;;;;8.48;6.45;;;12.90;97.10;;;;;;4981462;28;20022;-74
2022/09/24 05:51:39;;;;;;;7.60;6.30;;;13.00;97.20;;;;;;4981947;28;20165;-74
2022/09/24 05:54:05;;;;;;;7.97;6.30;;;13.00;97.30;;;;;;4980761;28;20029;-73
2022/09/24 05:56:31;;;;;;;9.05;5.80;;;13.00;97.30;;;;;;4963557;28;20035;-70
2022/09/24 05:58:59;;;;;;;8.07;6.40;;;13.10;97.30;;;;;;4980446;28;20018;-72
2022/09/24 06:01:28;;;;;;;7.75;6.22;;;13.10;97.20;;;;;;4979512;28;20050;-73
2022/09/24 06:03:55;;;;;;;6.53;5.72;;;13.10;97.20;;;;;;4981992;28;20022;-72
2022/09/24 06:06:22;;;;;;;7.32;5.80;;;13.20;97.30;;;;;;4980344;28;20046;-75
2022/09/24 06:08:48;;;;;;;7.20;5.93;;;13.20;97.20;;;;;;4978802;28;20089;-77
2022/09/24 06:11:13;;;;;;;8.27;6.20;;;13.20;97.20;;;;;;4980801;28;20030;-76
2022/09/24 06:13:39;;;;;;;7.95;6.28;;;13.30;97.20;;;;;;4980340;28;20057;-76
2022/09/24 06:16:07;;;;;;;7.60;6.30;;;13.30;97.10;;;;;;4980957;28;20019;-79
2022/09/24 06:18:36;;;;;;;8.02;5.97;;;13.30;97.10;;;;;;4980574;28;20042;-76
2022/09/24 06:21:06;;;;;;;9.50;6.97;;;13.30;97.20;;;;;;4980624;28;20042;-74
2022/09/24 06:23:33;;;;;;;7.50;5.93;;;13.40;97.20;;;;;;4980735;28;21530;-75
2022/09/24 06:25:59;;;;;;;7.90;6.28;;;13.40;97.20;;;;;;4981448;28;20030;-75
2022/09/24 06:28:24;;;;;;;7.50;5.82;;;13.40;97.10;;;;;;4980162;28;20076;-76
2022/09/24 06:30:50;;;;;;;8.27;6.40;;;13.40;97.10;;;;;;4988073;28;20014;-76
2022/09/24 06:33:16;;;;;;;6.72;5.68;;;13.50;97.10;;;;;;4993318;28;20035;-76
2022/09/24 06:35:43;;;;;;;8.93;6.35;;;13.50;97.10;;;;;;4985890;28;20026;-76
2022/09/24 06:38:14;;;;;;;7.03;5.63;;;13.50;97.00;;;;;;4986584;28;20034;-77
2022/09/24 06:40:43;;;;;;;8.10;7.25;;;13.60;96.90;;;;;;4984183;28;20034;-77
2022/09/24 06:43:10;;;;;;;8.32;6.50;;;13.60;97.00;;;;;;4982126;28;20026;-78
2022/09/24 06:45:35;;;;;;;8.18;6.53;;;13.60;97.00;;;;;;4982659;28;20117;-77
2022/09/24 06:48:03;;;;;;;7.85;6.50;;;13.60;97.10;;;;;;4983291;28;20174;-77
2022/09/24 06:50:30;;;;;;;8.80;6.47;;;13.70;97.10;;;;;;4981485;28;20031;-79
2022/09/24 06:52:57;;;;;;;7.75;6.15;;;13.70;97.00;;;;;;4979544;28;20310;-77
2022/09/24 06:55:23;;;;;;;7.25;5.68;;;13.80;97.00;;;;;;4978701;28;20069;-78
2022/09/24 06:57:49;;;;;;;7.97;7.00;;;13.80;96.90;;;;;;4980458;28;20030;-77
2022/09/24 07:00:15;;;;;;;7.10;5.55;;;13.90;96.90;;;;;;4978476;28;20088;-78
2022/09/24 07:02:41;;;;;;;9.75;5.90;;;13.90;96.90;;;;;;4979393;28;20125;-78
2022/09/24 07:05:08;;;;;;;17.20;6.63;;;14.00;96.80;;;;;;4977574;28;20536;-77
2022/09/24 07:07:34;;;;;;;9.27;6.25;;;14.00;96.70;;;;;;4981038;28;20054;-77
2022/09/24 07:10:03;;;;;;;9.43;6.43;;;14.00;96.70;;;;;;4980344;28;20027;-79
2022/09/24 07:12:31;;;;;;;6.93;6.00;;;14.00;96.60;;;;;;4978387;28;20038;-77
2022/09/24 07:14:59;;;;;;;9.35;6.90;;;14.10;96.60;;;;;;4977526;28;20026;-78
2022/09/24 07:17:25;;;;;;;10.73;6.97;;;14.10;96.70;;;;;;4978634;28;20508;-78
2022/09/24 07:19:51;;;;;;;8.85;6.32;;;14.00;96.60;;;;;;4979006;28;20036;-76
2022/09/24 07:22:17;;;;;;;13.30;6.88;;;14.10;96.60;;;;;;4980208;28;20065;-78
2022/09/24 07:24:43;;;;;;;8.70;6.40;;;14.10;96.60;;;;;;4978927;28;20022;-79
2022/09/24 07:27:08;;;;;;;9.18;6.80;;;14.10;96.70;;;;;;4980179;28;20524;-79
2022/09/24 07:29:34;;;;;;;8.05;6.88;;;14.20;96.80;;;;;;4983743;28;20121;-74
2022/09/24 07:32:02;;;;;;;7.55;6.45;;;14.30;96.80;;;;;;4979295;28;20058;-77
2022/09/24 07:34:28;;;;;;;7.78;6.72;;;14.30;96.70;;;;;;4979942;28;20105;-77
2022/09/24 07:36:55;;;;;;;11.93;6.53;;;14.30;96.90;;;;;;4978441;28;20030;-77
2022/09/24 07:39:24;;;;;;;7.95;6.55;;;14.30;96.80;;;;;;4979897;28;20034;-77
2022/09/24 07:41:51;;;;;;;8.70;6.45;;;14.40;96.70;;;;;;4978059;28;20045;-75
2022/09/24 07:44:19;;;;;;;8.35;5.95;;;14.40;96.80;;;;;;4975169;28;20034;-73
2022/09/24 07:46:49;;;;;;;11.73;6.80;;;14.50;96.70;;;;;;4973911;28;20042;-73
2022/09/24 07:49:15;;;;;;;8.50;6.38;;;14.50;96.70;;;;;;4976453;28;20090;-77
2022/09/24 07:51:41;;;;;;;9.45;6.63;;;14.60;96.60;;;;;;4963263;28;20030;-75
2022/09/24 07:54:07;;;;;;;12.75;6.95;;;14.60;96.40;;;;;;4977569;28;20599;-76
2022/09/24 07:56:33;;;;;;;10.07;6.93;;;14.60;96.30;;;;;;4978612;28;20034;-76
2022/09/24 07:58:59;;;;;;;8.60;6.63;;;14.60;96.30;;;;;;4978278;28;20030;-76
2022/09/24 08:01:26;;;;;;;9.60;7.13;;;14.60;96.40;;;;;;4979490;28;20127;-76
2022/09/24 08:03:52;;;;;;;9.00;6.88;;;14.70;96.40;;;;;;4961204;28;20026;-76
2022/09/24 08:06:21;;;;;;;11.30;7.68;;;14.70;96.30;;;;;;4979293;28;20924;-77
2022/09/24 08:08:49;;;;;;;8.60;7.43;;;14.70;96.30;;;;;;4979192;28;20169;-75
2022/09/24 08:11:16;;;;;;;8.05;6.93;;;14.80;96.20;;;;;;4978674;28;20385;-78
2022/09/24 08:13:42;;;;;;;8.55;6.75;;;14.80;96.20;;;;;;4978521;28;20030;-77
2022/09/24 08:16:08;;;;;;;10.55;6.40;;;14.90;96.20;;;;;;4977494;28;20031;-73
2022/09/24 08:18:33;;;;;;;7.97;6.40;;;15.00;96.40;;;;;;4979429;28;20045;-77
2022/09/24 08:21:04;;;;;;;9.07;6.50;;;15.00;96.30;;;;;;4978609;28;20038;-76
2022/09/24 08:23:31;;;;;;;8.43;6.70;;;15.00;96.30;;;;;;4978128;28;20394;-76
2022/09/24 08:25:57;;;;;;;8.57;7.25;;;15.10;96.30;;;;;;4977031;28;20050;-76
2022/09/24 08:28:23;;;;;;;8.90;6.65;;;15.10;96.20;;;;;;4979881;28;21889;-75
2022/09/24 08:30:48;;;;;;;9.32;6.38;;;15.20;96.10;;;;;;4962106;28;20409;-77
2022/09/24 08:33:16;;;;;;;8.05;6.78;;;15.20;96.00;;;;;;4977102;28;20026;-77
2022/09/24 08:35:42;;;;;;;7.68;6.50;;;15.20;96.00;;;;;;4977828;28;22310;-77
2022/09/24 08:38:08;;;;;;;9.30;6.80;;;15.30;96.00;;;;;;4980918;28;20121;-76
2022/09/24 08:41:02;;;;;;;8.40;6.15;;;15.40;95.80;;;;;;4978186;28;20058;-75
2022/09/24 08:44:04;;;;;;;9.65;6.72;;;15.40;95.90;;;;;;4982712;28;20030;-77
2022/09/24 08:49:44;;;;;;;7.30;6.32;;;15.50;95.70;;;;;;4978496;28;20061;-76
2022/09/24 08:52:29;;;;;;;12.48;6.32;;;15.50;95.60;;;;;;4979177;28;20034;-77
2022/09/24 08:55:04;;;;;;;9.00;6.70;;;15.50;95.60;;;;;;4985297;28;20046;-79
2022/09/24 08:57:39;;;;;;;7.88;6.53;;;15.60;95.30;;;;;;5002418;28;20038;-79
2022/09/24 09:00:06;;;;;;;7.15;6.40;;;15.70;95.20;;;;;;4992255;28;20055;-80
2022/09/24 09:03:14;;;;;;;9.25;7.22;;;15.70;95.00;;;;;;4974106;28;20042;-80
2022/09/24 09:06:00;;;;;;;7.72;6.15;;;15.80;95.20;;;;;;4967996;28;20041;-80
2022/09/24 09:08:37;;;;;;;10.63;7.03;;;15.90;95.40;;;;;;4984446;28;20034;-80
2022/09/24 09:11:09;;;;;;;8.82;6.20;;;15.90;95.30;;;;;;4985124;28;20041;-80
2022/09/24 09:13:42;;;;;;;10.82;7.30;;;16.00;95.10;;;;;;4985247;28;20041;-80
2022/09/24 09:16:29;;;;;;;10.23;6.40;;;16.00;95.10;;;;;;4984439;28;20108;-79
2022/09/24 09:19:08;;;;;;;9.00;6.93;;;16.10;95.20;;;;;;4982842;28;20084;-78
2022/09/24 09:21:42;;;;;;;8.57;6.68;;;16.10;95.10;;;;;;4982382;28;20041;-78
2022/09/24 09:24:22;;;;;;;7.70;6.00;;;16.20;95.10;;;;;;4965254;28;20030;-78
2022/09/24 09:26:53;;;;;;;10.55;7.38;;;16.30;95.10;;;;;;4966302;28;20039;-78
2022/09/24 09:29:23;;;;;;;8.60;6.90;;;16.50;95.10;;;;;;4972200;28;20644;-79
2022/09/24 09:32:19;;;;;;;9.23;7.38;;;16.50;94.80;;;;;;4986578;28;20054;-79
2022/09/24 09:34:47;;;;;;;8.95;6.35;;;16.60;94.60;;;;;;4979058;28;20042;-79
2022/09/24 09:37:55;;;;;;;8.15;6.22;;;16.60;94.50;;;;;;4994023;28;20072;-79
2022/09/24 09:40:28;;;;;;;7.43;6.28;;;16.60;94.30;;;;;;4983551;28;20204;-79
2022/09/24 09:43:20;;;;;;;11.02;6.50;;;16.70;94.30;;;;;;4958791;28;20042;-78
2022/09/24 09:46:14;;;;;;;9.10;6.72;;;16.70;94.60;;;;;;4978191;28;20114;-79
2022/09/24 09:48:44;;;;;;;9.77;6.95;;;16.70;94.70;;;;;;4987397;28;20035;-79
2022/09/24 09:51:20;;;;;;;7.60;6.03;;;16.70;94.30;;;;;;4995629;28;20026;-78
2022/09/24 09:54:00;;;;;;;7.18;6.18;;;16.80;94.10;;;;;;4995476;28;20027;-80
2022/09/24 09:56:33;;;;;;;7.85;6.20;;;16.80;93.80;;;;;;4975295;28;20039;-80
2022/09/24 09:59:10;;;;;;;9.55;5.60;;;16.80;93.80;;;;;;4991373;28;20076;-79
2022/09/24 10:01:40;;;;;;;8.02;5.72;;;16.80;94.00;;;;;;4992578;28;20125;-79
2022/09/24 10:04:25;;;;;;;7.30;5.85;;;16.90;93.70;;;;;;4991041;28;20114;-78
2022/09/24 10:06:50;;;;;;;11.32;6.25;;;16.90;93.50;;;;;;4984568;28;20022;-78
2022/09/24 10:09:19;;;;;;;6.55;5.60;;;16.90;93.70;;;;;;5001084;28;20030;-79
2022/09/24 10:11:47;;;;;;;7.68;5.78;;;16.90;93.80;;;;;;4994249;28;20089;-78
2022/09/24 10:14:17;;;;;;;8.63;5.95;;;17.00;93.90;;;;;;4993664;28;20022;-79
2022/09/24 10:16:46;;;;;;;7.22;5.65;;;17.00;93.60;;;;;;4993569;28;20045;-78
2022/09/24 10:19:33;;;;;;;7.35;6.03;;;17.00;93.50;;;;;;4993741;28;20061;-79
2022/09/24 10:22:19;;;;;;;7.05;5.32;;;17.10;93.90;;;;;;4992702;28;20505;-79
2022/09/24 10:24:46;;;;;;;6.85;5.45;;;17.10;93.80;;;;;;4981044;28;20026;-79
2022/09/24 10:27:16;;;;;;;7.97;5.65;;;17.20;93.80;;;;;;4993288;28;20117;-78
2022/09/24 10:32:28;;;;;;;8.70;5.47;;;17.30;93.50;;;;;;4989025;28;20386;-78
2022/09/24 10:35:21;;;;;;;7.93;5.72;;;17.30;93.60;;;;;;4992991;28;20073;-79
2022/09/24 10:37:58;;;;;;;7.00;5.50;;;17.40;93.30;;;;;;4992516;28;20433;-78
2022/09/24 10:40:39;;;;;;;6.30;5.10;;;17.40;93.30;;;;;;4976145;28;20030;-78
2022/09/24 10:43:06;;;;;;;6.63;5.05;;;17.40;93.20;;;;;;4992240;28;20037;-78
2022/09/24 10:45:49;;;;;;;6.78;5.45;;;17.40;93.20;;;;;;4992586;28;20100;-78
2022/09/24 10:48:25;;;;;;;7.55;5.82;;;17.50;93.20;;;;;;4978836;28;20109;-78
2022/09/24 10:51:05;;;;;;;6.00;4.78;;;17.50;93.10;;;;;;4979663;28;20030;-77
2022/09/24 10:53:48;;;;;;;7.72;5.78;;;17.50;93.10;;;;;;4978339;28;20030;-74
2022/09/24 10:56:29;;;;;;;7.18;4.72;;;17.60;92.80;;;;;;4965040;28;20382;-74
2022/09/24 10:59:15;;;;;;;6.03;4.68;;;17.60;92.80;;;;;;4975826;28;20481;-78
2022/09/24 11:02:00;;;;;;;7.53;5.90;;;17.70;93.00;;;;;;4975786;28;20481;-75
2022/09/24 11:04:31;;;;;;;5.80;5.00;;;17.70;93.00;;;;;;4978153;28;20034;-79
2022/09/24 11:07:23;;;;;;;6.50;5.13;;;17.80;93.10;;;;;;4978010;28;20393;-77
2022/09/24 11:10:14;;;;;;;7.45;4.90;;;17.90;92.90;;;;;;4975336;28;20203;-78
2022/09/24 11:12:48;;;;;;;8.45;5.88;;;17.90;92.70;;;;;;4980250;28;20521;-76
2022/09/24 11:15:49;;;;;;;8.63;6.30;;;17.90;92.60;;;;;;4978376;28;20038;-77
2022/09/24 11:18:24;;;;;;;7.97;6.38;;;18.00;92.80;;;;;;4984832;28;20466;-75
2022/09/24 11:20:53;;;;;;;7.22;5.68;;;18.10;93.00;;;;;;4987031;28;20043;-77
2022/09/24 11:23:31;;;;;;;7.63;5.97;;;18.20;93.20;;;;;;4985768;28;20624;-75
2022/09/24 11:26:24;;;;;;;6.90;5.50;;;18.30;92.90;;;;;;4982425;28;20038;-77
2022/09/24 11:29:19;;;;;;;5.90;4.47;;;18.40;92.90;;;;;;4967949;28;20498;-75
2022/09/24 11:32:05;;;;;;;8.93;7.15;;;18.50;92.70;;;;;;4979259;28;20121;-75
2022/09/24 11:34:59;;;;;;;7.90;6.65;;;18.50;92.50;;;;;;4980573;28;20504;-75
2022/09/24 11:37:49;;;;;;;9.38;5.88;;;18.60;92.70;;;;;;4978730;28;20030;-75
2022/09/24 11:40:15;;;;;;;10.93;5.57;;;18.70;92.20;;;;;;4978163;28;20405;-74
2022/09/24 11:42:52;;;;;;;8.23;5.80;;;18.70;92.40;;;;;;4977988;28;20034;-78
2022/09/24 11:45:39;;;;;;;6.93;5.85;;;18.80;92.20;;;;;;4978746;28;20486;-76
2022/09/24 11:48:21;;;;;;;6.95;5.22;;;18.80;92.00;;;;;;4978553;28;20045;-75
2022/09/24 11:51:13;;;;;;;7.57;5.75;;;18.90;92.20;;;;;;4978442;28;20513;-75
2022/09/24 11:53:56;;;;;;;6.65;4.78;;;18.90;92.00;;;;;;4979001;28;21630;-77
2022/09/24 11:56:35;;;;;;;5.45;4.78;;;19.00;92.00;;;;;;4979704;28;20058;-77
2022/09/24 11:59:13;;;;;;;7.97;5.40;;;19.00;91.70;;;;;;4977074;28;20499;-77
2022/09/24 12:01:47;;;;;;;6.18;4.57;;;19.00;91.60;;;;;;4976214;28;20077;-76
2022/09/24 12:04:56;;;;;;;6.00;4.72;;;19.00;91.60;;;;;;4977654;28;20051;-77
2022/09/24 12:07:45;;;;;;;5.80;4.70;;;19.10;91.70;;;;;;4962790;28;20066;-78
2022/09/24 12:10:35;;;;;;;7.03;4.97;;;19.10;91.90;;;;;;4977188;28;20088;-77
2022/09/24 12:13:14;;;;;;;5.93;4.68;;;19.00;92.20;;;;;;4977415;28;20029;-78
2022/09/24 12:16:04;;;;;;;6.05;5.30;;;19.00;92.20;;;;;;4979542;28;20045;-77
2022/09/24 12:18:49;;;;;;;6.55;4.95;;;19.00;91.80;;;;;;4983280;28;20119;-77
2022/09/24 12:21:20;;;;;;;6.22;5.13;;;19.00;91.50;;;;;;4981676;28;20057;-78
2022/09/24 12:23:50;;;;;;;6.10;4.88;;;18.90;91.70;;;;;;4982230;28;20046;-77
2022/09/24 12:26:18;;;;;;;8.73;5.05;;;18.80;91.70;;;;;;4982103;28;20034;-77
2022/09/24 12:35:08;;;;;;;5.85;4.93;;;18.70;91.80;;;;;;4982032;28;20034;-77
2022/09/24 12:37:39;;;;;;;5.85;5.15;;;18.60;91.80;;;;;;4981745;28;20414;-78
2022/09/24 12:40:24;;;;;;;7.70;5.95;;;18.60;91.80;;;;;;4980812;28;20520;-77
2022/09/24 12:42:55;;;;;;;6.93;5.78;;;18.60;91.90;;;;;;4979768;28;20061;-79
2022/09/24 12:45:23;;;;;;;7.38;6.10;;;18.60;91.80;;;;;;4979541;28;20045;-77
2022/09/24 12:47:54;;;;;;;8.93;5.93;;;18.60;91.80;;;;;;4983092;28;20034;-78
2022/09/24 12:50:27;;;;;;;11.00;6.45;;;18.70;91.80;;;;;;4983938;28;20382;-77
2022/09/24 12:52:54;;;;;;;9.13;5.95;;;18.70;91.80;;;;;;4981495;28;20030;-78
2022/09/24 12:55:24;;;;;;;7.03;5.78;;;18.70;91.70;;;;;;4980614;28;20046;-77
2022/09/24 12:58:02;;;;;;;11.40;6.72;;;18.70;91.60;;;;;;4982515;28;20045;-78
2022/09/24 13:00:44;;;;;;;8.30;6.25;;;18.70;91.60;;;;;;4980442;28;20038;-75
2022/09/24 13:03:37;;;;;;;8.63;5.88;;;18.70;91.50;;;;;;4979202;28;20049;-77
2022/09/24 13:06:18;;;;;;;8.00;6.40;;;18.80;91.70;;;;;;4980227;28;20023;-78
2022/09/24 13:08:44;;;;;;;8.40;5.50;;;18.80;91.40;;;;;;4980558;28;20034;-77
2022/09/24 13:11:35;;;;;;;5.75;4.80;;;18.80;91.40;;;;;;4979238;28;20101;-79
2022/09/24 13:14:14;;;;;;;7.30;5.65;;;18.80;91.60;;;;;;4981058;28;20497;-77
2022/09/24 13:16:42;;;;;;;8.18;5.65;;;18.90;91.60;;;;;;4979665;28;20065;-78
2022/09/24 13:19:33;;;;;;;7.88;5.68;;;18.90;91.40;;;;;;4980746;28;20038;-79
2022/09/24 13:22:00;;;;;;;8.15;5.57;;;18.90;91.30;;;;;;4963023;28;20053;-78
2022/09/24 13:24:45;;;;;;;7.30;5.63;;;18.90;91.40;;;;;;4982449;28;20363;-78
2022/09/24 13:27:36;;;;;;;8.52;5.93;;;18.90;91.20;;;;;;4981259;28;20047;-78